This is the latest recevied weather packets stored in our database for station/object KB0OLA. If no packets are shown the sender has not sent any weather packets the latest 10 day(s).
| Time | Temp. | Humidity | Pressure | Rain* | Wind** | Luminosity | Snow |
|---|---|---|---|---|---|---|---|
| 1778145917 | 5° C | 59% | 1018.5 hPa | 0 mm | - | - | - |
| 1778141717 | 5.56° C | 55% | 1019.2 hPa | 0 mm | - | - | - |
| 1778141117 | 5.56° C | 56% | 1019.3 hPa | 0 mm | - | - | - |
| 1778139917 | 5.56° C | 57% | 1019.5 hPa | 0 mm | - | - | - |
| 1778136917 | 6.67° C | 54% | 1019.8 hPa | 0 mm | - | - | - |
| 1778133917 | 7.22° C | 50% | 1019.7 hPa | 0 mm | - | - | - |
| 1778129117 | 7.78° C | 49% | 1019.7 hPa | 0 mm | - | - | - |
| 1778127317 | 7.78° C | 47% | 1019.7 hPa | 0 mm | - | - | - |
| 1778126718 | 8.33° C | 47% | 1019.6 hPa | 0 mm | - | - | - |
| 1778117737 | 15.56° C | 26% | 1019.3 hPa | 0 mm | - | - | - |
| 1778114718 | 17.22° C | 24% | 1019.3 hPa | 0 mm | - | - | - |
| 1778114160 | 17.78° C | 24% | 1019.3 hPa | 0 mm | - | - | - |
| 1778113518 | 18.33° C | 24% | 1019.3 hPa | 0 mm | - | - | - |
| 1778112918 | 17.78° C | 26% | 1019.3 hPa | 0 mm | - | - | - |
| 1778109938 | 17.78° C | 25% | 1019.3 hPa | 0 mm | - | - | - |
| 1778106918 | 17.22° C | 26% | 1019.4 hPa | 0 mm | - | - | - |
| 1778104517 | 16.67° C | 27% | 1019.7 hPa | 0 mm | - | - | - |
| 1778100918 | 16.11° C | 25% | 1019.8 hPa | 0 mm | - | - | - |
| 1778098518 | 15.56° C | 28% | 1019.7 hPa | 0 mm | - | - | - |
| 1778096160 | 15° C | 31% | 1019.8 hPa | 0 mm | - | - | - |
| 1778089517 | 12.22° C | 33% | 1020.2 hPa | 0 mm | - | - | - |
| 1778082917 | 8.33° C | 48% | 1019.4 hPa | 0 mm | - | - | - |
| 1778080516 | 7.22° C | 54% | 1018.8 hPa | 0 mm | - | - | - |
| 1778073318 | 5° C | 55% | 1017.5 hPa | 0 mm | - | - | - |
| 1778067917 | 5.56° C | 52% | 1016 hPa | 0 mm | - | - | - |
* Rain latest hour (hover to see other rain measurements)
** Current wind speed in m/s (hover to see current wind gust speed)